sensor_id;sensor_type;location;lat;lon;timestamp;temperature;humidity
4647;DHT22;2336;47.822;7.564;2023-09-19T00:00:21;18.80;99.90
4647;DHT22;2336;47.822;7.564;2023-09-19T00:02:52;18.80;99.90
4647;DHT22;2336;47.822;7.564;2023-09-19T00:05:19;18.80;99.90
4647;DHT22;2336;47.822;7.564;2023-09-19T00:07:50;18.80;99.90
4647;DHT22;2336;47.822;7.564;2023-09-19T00:10:17;18.80;99.90
4647;DHT22;2336;47.822;7.564;2023-09-19T00:12:44;18.80;99.90
4647;DHT22;2336;47.822;7.564;2023-09-19T00:15:11;18.80;99.90
4647;DHT22;2336;47.822;7.564;2023-09-19T00:17:39;18.70;99.90
4647;DHT22;2336;47.822;7.564;2023-09-19T00:20:07;18.70;99.90
4647;DHT22;2336;47.822;7.564;2023-09-19T00:22:39;18.60;99.90
4647;DHT22;2336;47.822;7.564;2023-09-19T00:25:06;18.50;99.90
4647;DHT22;2336;47.822;7.564;2023-09-19T00:27:33;18.50;99.90
4647;DHT22;2336;47.822;7.564;2023-09-19T00:30:00;18.50;99.90
4647;DHT22;2336;47.822;7.564;2023-09-19T00:32:29;18.50;99.90
4647;DHT22;2336;47.822;7.564;2023-09-19T00:34:58;18.50;99.90
4647;DHT22;2336;47.822;7.564;2023-09-19T00:37:25;18.40;99.90
4647;DHT22;2336;47.822;7.564;2023-09-19T00:39:52;18.40;99.90
4647;DHT22;2336;47.822;7.564;2023-09-19T00:42:19;18.40;99.90
4647;DHT22;2336;47.822;7.564;2023-09-19T00:44:46;18.40;99.90
4647;DHT22;2336;47.822;7.564;2023-09-19T00:47:16;18.40;99.90
4647;DHT22;2336;47.822;7.564;2023-09-19T00:49:43;18.40;99.90
4647;DHT22;2336;47.822;7.564;2023-09-19T00:52:12;18.40;99.90
4647;DHT22;2336;47.822;7.564;2023-09-19T00:54:39;18.40;99.90
4647;DHT22;2336;47.822;7.564;2023-09-19T00:57:06;18.30;99.90
4647;DHT22;2336;47.822;7.564;2023-09-19T00:59:33;18.30;99.90
4647;DHT22;2336;47.822;7.564;2023-09-19T01:02:01;18.30;99.90
4647;DHT22;2336;47.822;7.564;2023-09-19T01:04:29;18.20;99.90
4647;DHT22;2336;47.822;7.564;2023-09-19T01:06:56;18.20;99.90
4647;DHT22;2336;47.822;7.564;2023-09-19T01:09:25;18.20;99.90
4647;DHT22;2336;47.822;7.564;2023-09-19T01:11:59;18.20;99.90
4647;DHT22;2336;47.822;7.564;2023-09-19T01:14:33;18.20;99.90
4647;DHT22;2336;47.822;7.564;2023-09-19T01:17:04;18.20;99.90
4647;DHT22;2336;47.822;7.564;2023-09-19T01:22:42;18.20;99.90
4647;DHT22;2336;47.822;7.564;2023-09-19T01:28:32;18.20;99.90
4647;DHT22;2336;47.822;7.564;2023-09-19T01:31:04;18.30;99.90
4647;DHT22;2336;47.822;7.564;2023-09-19T01:33:59;18.30;99.90
4647;DHT22;2336;47.822;7.564;2023-09-19T01:36:28;18.30;99.90
4647;DHT22;2336;47.822;7.564;2023-09-19T01:38:56;18.30;99.90
4647;DHT22;2336;47.822;7.564;2023-09-19T01:41:30;18.30;99.90
4647;DHT22;2336;47.822;7.564;2023-09-19T01:44:00;18.30;99.90
4647;DHT22;2336;47.822;7.564;2023-09-19T01:46:34;18.30;99.90
4647;DHT22;2336;47.822;7.564;2023-09-19T01:49:10;18.30;99.90
4647;DHT22;2336;47.822;7.564;2023-09-19T01:51:48;18.30;99.90
4647;DHT22;2336;47.822;7.564;2023-09-19T01:54:20;18.40;99.90
4647;DHT22;2336;47.822;7.564;2023-09-19T01:56:53;18.30;99.90
4647;DHT22;2336;47.822;7.564;2023-09-19T01:59:27;18.30;99.90
4647;DHT22;2336;47.822;7.564;2023-09-19T02:01:58;18.30;99.90
4647;DHT22;2336;47.822;7.564;2023-09-19T02:04:26;18.30;99.90
4647;DHT22;2336;47.822;7.564;2023-09-19T02:06:53;18.30;99.90
4647;DHT22;2336;47.822;7.564;2023-09-19T02:09:21;18.30;99.90
4647;DHT22;2336;47.822;7.564;2023-09-19T02:11:48;18.30;99.90
4647;DHT22;2336;47.822;7.564;2023-09-19T02:14:15;18.30;99.90
4647;DHT22;2336;47.822;7.564;2023-09-19T02:16:41;18.30;99.90
4647;DHT22;2336;47.822;7.564;2023-09-19T02:19:09;18.30;99.90
4647;DHT22;2336;47.822;7.564;2023-09-19T02:21:36;18.20;99.90
4647;DHT22;2336;47.822;7.564;2023-09-19T02:24:06;18.20;99.90
4647;DHT22;2336;47.822;7.564;2023-09-19T02:26:34;18.30;99.90
4647;DHT22;2336;47.822;7.564;2023-09-19T02:29:02;18.20;99.90
4647;DHT22;2336;47.822;7.564;2023-09-19T02:31:30;18.20;99.90
4647;DHT22;2336;47.822;7.564;2023-09-19T02:33:57;18.20;99.90
4647;DHT22;2336;47.822;7.564;2023-09-19T02:36:26;18.20;99.90
4647;DHT22;2336;47.822;7.564;2023-09-19T02:38:53;18.30;99.90
4647;DHT22;2336;47.822;7.564;2023-09-19T02:41:20;18.30;99.90
4647;DHT22;2336;47.822;7.564;2023-09-19T02:43:47;18.30;99.90
4647;DHT22;2336;47.822;7.564;2023-09-19T02:46:14;18.30;99.90
4647;DHT22;2336;47.822;7.564;2023-09-19T02:48:42;18.30;99.90
4647;DHT22;2336;47.822;7.564;2023-09-19T02:51:09;18.20;99.90
4647;DHT22;2336;47.822;7.564;2023-09-19T02:53:37;18.20;99.90
4647;DHT22;2336;47.822;7.564;2023-09-19T02:56:04;18.20;99.90
4647;DHT22;2336;47.822;7.564;2023-09-19T02:58:31;18.20;99.90
4647;DHT22;2336;47.822;7.564;2023-09-19T03:01:08;18.10;99.90
4647;DHT22;2336;47.822;7.564;2023-09-19T03:03:34;18.10;99.90
4647;DHT22;2336;47.822;7.564;2023-09-19T03:06:03;18.10;99.90
4647;DHT22;2336;47.822;7.564;2023-09-19T03:08:30;18.10;99.90
4647;DHT22;2336;47.822;7.564;2023-09-19T03:10:58;18.10;99.90
4647;DHT22;2336;47.822;7.564;2023-09-19T03:13:26;18.10;99.90
4647;DHT22;2336;47.822;7.564;2023-09-19T03:15:54;18.10;99.90
4647;DHT22;2336;47.822;7.564;2023-09-19T03:18:22;18.10;99.90
4647;DHT22;2336;47.822;7.564;2023-09-19T03:20:53;18.10;99.90
4647;DHT22;2336;47.822;7.564;2023-09-19T03:23:20;18.10;99.90
4647;DHT22;2336;47.822;7.564;2023-09-19T03:25:47;18.10;99.90
4647;DHT22;2336;47.822;7.564;2023-09-19T03:28:15;18.10;99.90
4647;DHT22;2336;47.822;7.564;2023-09-19T03:30:42;18.10;99.90
4647;DHT22;2336;47.822;7.564;2023-09-19T03:33:09;18.10;99.90
4647;DHT22;2336;47.822;7.564;2023-09-19T03:35:37;18.10;99.90
4647;DHT22;2336;47.822;7.564;2023-09-19T03:38:05;18.00;99.90
4647;DHT22;2336;47.822;7.564;2023-09-19T03:40:32;18.00;99.90
4647;DHT22;2336;47.822;7.564;2023-09-19T03:43:00;18.00;99.90
4647;DHT22;2336;47.822;7.564;2023-09-19T03:45:28;17.90;99.90
4647;DHT22;2336;47.822;7.564;2023-09-19T03:47:55;17.90;99.90
4647;DHT22;2336;47.822;7.564;2023-09-19T03:50:22;17.90;99.90
4647;DHT22;2336;47.822;7.564;2023-09-19T03:52:49;17.90;99.90
4647;DHT22;2336;47.822;7.564;2023-09-19T03:55:16;17.90;99.90
4647;DHT22;2336;47.822;7.564;2023-09-19T03:57:48;17.90;99.90
4647;DHT22;2336;47.822;7.564;2023-09-19T04:00:14;17.90;99.90
4647;DHT22;2336;47.822;7.564;2023-09-19T04:02:47;17.90;99.90
4647;DHT22;2336;47.822;7.564;2023-09-19T04:05:14;17.80;99.90
4647;DHT22;2336;47.822;7.564;2023-09-19T04:07:41;17.80;99.90
4647;DHT22;2336;47.822;7.564;2023-09-19T04:10:09;17.80;99.90
4647;DHT22;2336;47.822;7.564;2023-09-19T04:12:37;17.80;99.90
4647;DHT22;2336;47.822;7.564;2023-09-19T04:15:05;17.90;99.90
4647;DHT22;2336;47.822;7.564;2023-09-19T04:17:32;17.90;99.90
4647;DHT22;2336;47.822;7.564;2023-09-19T04:20:00;17.90;99.90
4647;DHT22;2336;47.822;7.564;2023-09-19T04:22:29;17.90;99.90
4647;DHT22;2336;47.822;7.564;2023-09-19T04:24:56;17.90;99.90
4647;DHT22;2336;47.822;7.564;2023-09-19T04:27:23;17.90;99.90
4647;DHT22;2336;47.822;7.564;2023-09-19T04:29:50;17.80;99.90
4647;DHT22;2336;47.822;7.564;2023-09-19T04:32:18;17.80;99.90
4647;DHT22;2336;47.822;7.564;2023-09-19T04:34:45;17.80;99.90
4647;DHT22;2336;47.822;7.564;2023-09-19T04:37:17;17.80;99.90
4647;DHT22;2336;47.822;7.564;2023-09-19T04:39:43;17.80;99.90
4647;DHT22;2336;47.822;7.564;2023-09-19T04:42:12;17.80;99.90
4647;DHT22;2336;47.822;7.564;2023-09-19T04:44:40;17.80;99.90
4647;DHT22;2336;47.822;7.564;2023-09-19T04:47:08;17.80;99.90
4647;DHT22;2336;47.822;7.564;2023-09-19T04:49:34;17.70;99.90
4647;DHT22;2336;47.822;7.564;2023-09-19T04:52:01;17.70;99.90
4647;DHT22;2336;47.822;7.564;2023-09-19T04:54:29;17.70;99.90
4647;DHT22;2336;47.822;7.564;2023-09-19T04:56:56;17.70;99.90
4647;DHT22;2336;47.822;7.564;2023-09-19T04:59:23;17.70;99.90
4647;DHT22;2336;47.822;7.564;2023-09-19T05:01:50;17.70;99.90
4647;DHT22;2336;47.822;7.564;2023-09-19T05:04:17;17.80;99.90
4647;DHT22;2336;47.822;7.564;2023-09-19T05:06:43;17.70;99.90
4647;DHT22;2336;47.822;7.564;2023-09-19T05:09:10;17.70;99.90
4647;DHT22;2336;47.822;7.564;2023-09-19T05:11:39;17.70;99.90
4647;DHT22;2336;47.822;7.564;2023-09-19T05:14:05;17.80;99.90
4647;DHT22;2336;47.822;7.564;2023-09-19T05:16:32;17.80;99.90
4647;DHT22;2336;47.822;7.564;2023-09-19T05:18:59;17.70;99.90
4647;DHT22;2336;47.822;7.564;2023-09-19T05:21:26;17.80;99.90
4647;DHT22;2336;47.822;7.564;2023-09-19T05:23:55;17.80;99.90
4647;DHT22;2336;47.822;7.564;2023-09-19T05:26:22;17.70;99.90
4647;DHT22;2336;47.822;7.564;2023-09-19T05:28:50;17.70;99.90
4647;DHT22;2336;47.822;7.564;2023-09-19T05:31:18;17.70;99.90
4647;DHT22;2336;47.822;7.564;2023-09-19T05:33:45;17.70;99.90
4647;DHT22;2336;47.822;7.564;2023-09-19T05:36:11;17.80;99.90
4647;DHT22;2336;47.822;7.564;2023-09-19T05:38:38;17.80;99.90
4647;DHT22;2336;47.822;7.564;2023-09-19T05:41:06;17.80;99.90
4647;DHT22;2336;47.822;7.564;2023-09-19T05:43:33;17.80;99.90
4647;DHT22;2336;47.822;7.564;2023-09-19T05:46:01;17.80;99.90
4647;DHT22;2336;47.822;7.564;2023-09-19T05:48:28;17.80;99.90
4647;DHT22;2336;47.822;7.564;2023-09-19T05:50:55;17.80;99.90
4647;DHT22;2336;47.822;7.564;2023-09-19T05:53:21;17.80;99.90
4647;DHT22;2336;47.822;7.564;2023-09-19T05:55:48;17.80;99.90
4647;DHT22;2336;47.822;7.564;2023-09-19T05:58:15;17.90;99.90
4647;DHT22;2336;47.822;7.564;2023-09-19T06:00:43;17.80;99.90
4647;DHT22;2336;47.822;7.564;2023-09-19T06:03:11;17.90;99.90
4647;DHT22;2336;47.822;7.564;2023-09-19T06:05:40;17.90;99.90
4647;DHT22;2336;47.822;7.564;2023-09-19T06:08:07;17.90;99.90
4647;DHT22;2336;47.822;7.564;2023-09-19T06:10:35;17.90;99.90
4647;DHT22;2336;47.822;7.564;2023-09-19T06:13:02;17.90;99.90
4647;DHT22;2336;47.822;7.564;2023-09-19T06:15:29;18.00;99.90
4647;DHT22;2336;47.822;7.564;2023-09-19T06:17:58;18.00;99.90
4647;DHT22;2336;47.822;7.564;2023-09-19T06:20:29;18.00;99.90
4647;DHT22;2336;47.822;7.564;2023-09-19T06:22:56;17.90;99.90
4647;DHT22;2336;47.822;7.564;2023-09-19T06:25:22;17.90;99.90
4647;DHT22;2336;47.822;7.564;2023-09-19T06:27:50;17.90;99.90
4647;DHT22;2336;47.822;7.564;2023-09-19T06:30:19;17.90;99.90
4647;DHT22;2336;47.822;7.564;2023-09-19T06:32:48;17.90;99.90
4647;DHT22;2336;47.822;7.564;2023-09-19T06:35:16;17.90;99.90
4647;DHT22;2336;47.822;7.564;2023-09-19T06:37:44;17.80;99.90
4647;DHT22;2336;47.822;7.564;2023-09-19T06:40:11;17.80;99.90
4647;DHT22;2336;47.822;7.564;2023-09-19T06:42:40;17.90;99.90
4647;DHT22;2336;47.822;7.564;2023-09-19T06:45:08;17.90;99.90
4647;DHT22;2336;47.822;7.564;2023-09-19T06:47:37;17.90;99.90
4647;DHT22;2336;47.822;7.564;2023-09-19T06:50:04;17.80;99.90
4647;DHT22;2336;47.822;7.564;2023-09-19T06:52:34;17.80;99.90
4647;DHT22;2336;47.822;7.564;2023-09-19T06:55:03;17.90;99.90
4647;DHT22;2336;47.822;7.564;2023-09-19T06:57:32;17.90;99.90
4647;DHT22;2336;47.822;7.564;2023-09-19T06:59:58;17.90;99.90
4647;DHT22;2336;47.822;7.564;2023-09-19T07:02:26;17.90;99.90
4647;DHT22;2336;47.822;7.564;2023-09-19T07:04:53;18.10;99.90
4647;DHT22;2336;47.822;7.564;2023-09-19T07:07:20;18.00;99.90
4647;DHT22;2336;47.822;7.564;2023-09-19T07:09:47;18.10;99.90
4647;DHT22;2336;47.822;7.564;2023-09-19T07:12:15;18.10;99.90
4647;DHT22;2336;47.822;7.564;2023-09-19T07:14:42;18.10;99.90
4647;DHT22;2336;47.822;7.564;2023-09-19T07:17:09;18.20;99.90
4647;DHT22;2336;47.822;7.564;2023-09-19T07:19:37;18.30;99.90
4647;DHT22;2336;47.822;7.564;2023-09-19T07:22:03;18.30;99.90
4647;DHT22;2336;47.822;7.564;2023-09-19T07:24:30;18.40;99.90
4647;DHT22;2336;47.822;7.564;2023-09-19T07:26:58;18.40;99.90
4647;DHT22;2336;47.822;7.564;2023-09-19T07:29:26;18.50;99.90
4647;DHT22;2336;47.822;7.564;2023-09-19T07:31:52;18.50;99.90
4647;DHT22;2336;47.822;7.564;2023-09-19T07:34:19;18.50;99.90
4647;DHT22;2336;47.822;7.564;2023-09-19T07:36:47;18.60;99.90
4647;DHT22;2336;47.822;7.564;2023-09-19T07:39:14;18.60;99.90
4647;DHT22;2336;47.822;7.564;2023-09-19T07:41:40;18.60;99.90
4647;DHT22;2336;47.822;7.564;2023-09-19T07:44:07;18.70;99.90
4647;DHT22;2336;47.822;7.564;2023-09-19T07:46:36;18.70;99.90
4647;DHT22;2336;47.822;7.564;2023-09-19T07:49:04;18.80;99.90
4647;DHT22;2336;47.822;7.564;2023-09-19T07:51:31;18.80;99.90
4647;DHT22;2336;47.822;7.564;2023-09-19T07:53:58;18.80;99.90
4647;DHT22;2336;47.822;7.564;2023-09-19T07:56:25;18.90;99.90
4647;DHT22;2336;47.822;7.564;2023-09-19T07:58:53;18.90;99.90
4647;DHT22;2336;47.822;7.564;2023-09-19T08:01:19;18.90;99.90
4647;DHT22;2336;47.822;7.564;2023-09-19T08:03:50;19.00;99.90
4647;DHT22;2336;47.822;7.564;2023-09-19T08:06:17;19.10;99.90
4647;DHT22;2336;47.822;7.564;2023-09-19T08:08:44;19.10;99.90
4647;DHT22;2336;47.822;7.564;2023-09-19T08:11:11;19.20;99.90
4647;DHT22;2336;47.822;7.564;2023-09-19T08:13:38;19.20;99.90
4647;DHT22;2336;47.822;7.564;2023-09-19T08:16:09;19.20;99.90
4647;DHT22;2336;47.822;7.564;2023-09-19T08:18:36;19.30;99.90
4647;DHT22;2336;47.822;7.564;2023-09-19T08:21:04;19.40;99.90
4647;DHT22;2336;47.822;7.564;2023-09-19T08:23:35;19.50;99.90
4647;DHT22;2336;47.822;7.564;2023-09-19T08:26:02;19.50;99.90
4647;DHT22;2336;47.822;7.564;2023-09-19T08:28:33;19.50;99.90
4647;DHT22;2336;47.822;7.564;2023-09-19T08:31:02;19.60;99.90
4647;DHT22;2336;47.822;7.564;2023-09-19T08:33:31;19.60;99.90
4647;DHT22;2336;47.822;7.564;2023-09-19T08:35:58;19.60;99.90
4647;DHT22;2336;47.822;7.564;2023-09-19T08:38:26;19.70;99.90
4647;DHT22;2336;47.822;7.564;2023-09-19T08:40:57;19.90;99.90
4647;DHT22;2336;47.822;7.564;2023-09-19T08:43:24;19.90;99.90
4647;DHT22;2336;47.822;7.564;2023-09-19T08:45:52;19.90;99.90
4647;DHT22;2336;47.822;7.564;2023-09-19T08:48:23;19.90;99.90
4647;DHT22;2336;47.822;7.564;2023-09-19T08:50:54;20.00;99.90
4647;DHT22;2336;47.822;7.564;2023-09-19T08:53:30;19.90;99.90
4647;DHT22;2336;47.822;7.564;2023-09-19T08:55:59;19.90;99.90
4647;DHT22;2336;47.822;7.564;2023-09-19T08:58:33;20.00;99.90
4647;DHT22;2336;47.822;7.564;2023-09-19T09:01:01;20.10;99.90
4647;DHT22;2336;47.822;7.564;2023-09-19T09:03:33;20.20;99.90
4647;DHT22;2336;47.822;7.564;2023-09-19T09:06:01;20.10;99.90
4647;DHT22;2336;47.822;7.564;2023-09-19T09:08:32;20.20;99.90
4647;DHT22;2336;47.822;7.564;2023-09-19T09:10:59;20.30;99.90
4647;DHT22;2336;47.822;7.564;2023-09-19T09:13:27;20.40;99.90
4647;DHT22;2336;47.822;7.564;2023-09-19T09:15:55;20.50;99.90
4647;DHT22;2336;47.822;7.564;2023-09-19T09:18:24;20.50;99.90
4647;DHT22;2336;47.822;7.564;2023-09-19T09:20:52;20.40;99.90
4647;DHT22;2336;47.822;7.564;2023-09-19T09:23:21;20.50;99.90
4647;DHT22;2336;47.822;7.564;2023-09-19T09:25:52;20.60;99.90
4647;DHT22;2336;47.822;7.564;2023-09-19T09:28:23;20.70;99.90
4647;DHT22;2336;47.822;7.564;2023-09-19T09:30:50;20.70;99.90
4647;DHT22;2336;47.822;7.564;2023-09-19T09:33:17;20.50;99.90
4647;DHT22;2336;47.822;7.564;2023-09-19T09:35:48;20.30;99.90
4647;DHT22;2336;47.822;7.564;2023-09-19T09:38:17;20.00;99.90
4647;DHT22;2336;47.822;7.564;2023-09-19T09:40:48;20.00;99.90
4647;DHT22;2336;47.822;7.564;2023-09-19T09:43:28;19.90;99.90
4647;DHT22;2336;47.822;7.564;2023-09-19T09:46:10;19.80;99.90
4647;DHT22;2336;47.822;7.564;2023-09-19T09:49:05;19.90;99.90
4647;DHT22;2336;47.822;7.564;2023-09-19T09:51:42;20.00;99.90
4647;DHT22;2336;47.822;7.564;2023-09-19T09:54:11;20.10;99.90
4647;DHT22;2336;47.822;7.564;2023-09-19T09:57:01;20.10;99.90
4647;DHT22;2336;47.822;7.564;2023-09-19T09:59:53;20.10;99.90
4647;DHT22;2336;47.822;7.564;2023-09-19T10:02:25;20.20;99.90
4647;DHT22;2336;47.822;7.564;2023-09-19T10:04:55;20.40;99.90
4647;DHT22;2336;47.822;7.564;2023-09-19T10:07:34;20.50;99.90
4647;DHT22;2336;47.822;7.564;2023-09-19T10:10:07;20.60;99.90
4647;DHT22;2336;47.822;7.564;2023-09-19T10:12:44;20.60;99.90
4647;DHT22;2336;47.822;7.564;2023-09-19T10:15:15;20.70;99.90
4647;DHT22;2336;47.822;7.564;2023-09-19T10:17:44;20.70;99.90
4647;DHT22;2336;47.822;7.564;2023-09-19T10:20:15;20.70;99.90
4647;DHT22;2336;47.822;7.564;2023-09-19T10:23:01;20.80;99.90
4647;DHT22;2336;47.822;7.564;2023-09-19T10:25:36;21.10;99.90
4647;DHT22;2336;47.822;7.564;2023-09-19T10:28:05;21.30;99.90
4647;DHT22;2336;47.822;7.564;2023-09-19T10:30:38;21.40;99.90
4647;DHT22;2336;47.822;7.564;2023-09-19T10:33:10;21.60;99.90
4647;DHT22;2336;47.822;7.564;2023-09-19T10:35:38;21.80;99.90
4647;DHT22;2336;47.822;7.564;2023-09-19T10:38:06;21.80;99.90
4647;DHT22;2336;47.822;7.564;2023-09-19T10:40:35;21.90;99.90
4647;DHT22;2336;47.822;7.564;2023-09-19T10:43:03;22.10;99.90
4647;DHT22;2336;47.822;7.564;2023-09-19T10:45:32;22.30;99.90
4647;DHT22;2336;47.822;7.564;2023-09-19T10:48:02;22.20;99.90
4647;DHT22;2336;47.822;7.564;2023-09-19T10:50:31;22.40;99.90
4647;DHT22;2336;47.822;7.564;2023-09-19T10:53:01;22.40;99.90
4647;DHT22;2336;47.822;7.564;2023-09-19T10:55:32;22.60;99.90
4647;DHT22;2336;47.822;7.564;2023-09-19T10:58:01;22.50;99.90
4647;DHT22;2336;47.822;7.564;2023-09-19T11:00:30;22.50;99.90
4647;DHT22;2336;47.822;7.564;2023-09-19T11:03:18;22.40;99.90
4647;DHT22;2336;47.822;7.564;2023-09-19T11:06:01;22.30;99.90
4647;DHT22;2336;47.822;7.564;2023-09-19T11:08:31;22.40;99.90
4647;DHT22;2336;47.822;7.564;2023-09-19T11:11:43;22.40;99.90
4647;DHT22;2336;47.822;7.564;2023-09-19T11:14:15;22.50;99.90
4647;DHT22;2336;47.822;7.564;2023-09-19T11:20:24;22.30;99.90
4647;DHT22;2336;47.822;7.564;2023-09-19T11:23:22;22.60;99.90
4647;DHT22;2336;47.822;7.564;2023-09-19T11:25:56;22.80;99.90
4647;DHT22;2336;47.822;7.564;2023-09-19T11:28:33;22.80;99.90
4647;DHT22;2336;47.822;7.564;2023-09-19T11:37:03;22.60;99.90
4647;DHT22;2336;47.822;7.564;2023-09-19T11:40:06;22.60;99.90
4647;DHT22;2336;47.822;7.564;2023-09-19T11:42:45;22.60;99.90
4647;DHT22;2336;47.822;7.564;2023-09-19T11:48:24;22.80;99.90
4647;DHT22;2336;47.822;7.564;2023-09-19T11:50:53;23.00;99.90
4647;DHT22;2336;47.822;7.564;2023-09-19T11:53:21;23.20;99.90
4647;DHT22;2336;47.822;7.564;2023-09-19T11:55:49;23.30;99.90
4647;DHT22;2336;47.822;7.564;2023-09-19T11:58:18;23.60;99.90
4647;DHT22;2336;47.822;7.564;2023-09-19T12:00:45;23.50;99.90
4647;DHT22;2336;47.822;7.564;2023-09-19T12:03:12;23.40;99.90
4647;DHT22;2336;47.822;7.564;2023-09-19T12:05:40;23.40;99.90
4647;DHT22;2336;47.822;7.564;2023-09-19T12:08:07;23.50;99.90
4647;DHT22;2336;47.822;7.564;2023-09-19T12:10:47;23.40;99.90
4647;DHT22;2336;47.822;7.564;2023-09-19T12:13:16;23.30;99.90
4647;DHT22;2336;47.822;7.564;2023-09-19T12:15:43;23.20;99.90
4647;DHT22;2336;47.822;7.564;2023-09-19T12:18:25;23.00;99.90
4647;DHT22;2336;47.822;7.564;2023-09-19T12:20:52;22.90;99.90
4647;DHT22;2336;47.822;7.564;2023-09-19T12:23:20;22.90;99.90
4647;DHT22;2336;47.822;7.564;2023-09-19T12:25:48;22.90;99.90
4647;DHT22;2336;47.822;7.564;2023-09-19T12:28:19;23.10;99.90
4647;DHT22;2336;47.822;7.564;2023-09-19T12:30:47;23.40;99.90
4647;DHT22;2336;47.822;7.564;2023-09-19T12:33:18;23.40;99.90
4647;DHT22;2336;47.822;7.564;2023-09-19T12:35:46;23.60;99.90
4647;DHT22;2336;47.822;7.564;2023-09-19T12:38:23;23.70;99.90
4647;DHT22;2336;47.822;7.564;2023-09-19T12:40:51;23.80;99.90
4647;DHT22;2336;47.822;7.564;2023-09-19T12:43:19;23.80;99.90
4647;DHT22;2336;47.822;7.564;2023-09-19T12:45:46;23.90;99.90
4647;DHT22;2336;47.822;7.564;2023-09-19T12:48:21;23.90;99.90
4647;DHT22;2336;47.822;7.564;2023-09-19T12:51:04;23.70;99.90
4647;DHT22;2336;47.822;7.564;2023-09-19T12:53:36;23.70;99.90
4647;DHT22;2336;47.822;7.564;2023-09-19T12:56:07;23.40;99.90
4647;DHT22;2336;47.822;7.564;2023-09-19T12:58:36;23.50;99.90
4647;DHT22;2336;47.822;7.564;2023-09-19T13:01:14;23.60;99.90
4647;DHT22;2336;47.822;7.564;2023-09-19T13:03:41;23.70;99.90
4647;DHT22;2336;47.822;7.564;2023-09-19T13:06:08;23.60;99.90
4647;DHT22;2336;47.822;7.564;2023-09-19T13:08:37;23.70;99.90
4647;DHT22;2336;47.822;7.564;2023-09-19T13:11:10;23.80;99.90
4647;DHT22;2336;47.822;7.564;2023-09-19T13:13:40;23.60;99.70
4647;DHT22;2336;47.822;7.564;2023-09-19T13:16:07;23.40;99.90
4647;DHT22;2336;47.822;7.564;2023-09-19T13:18:45;23.30;99.90
4647;DHT22;2336;47.822;7.564;2023-09-19T13:21:13;23.60;99.90
4647;DHT22;2336;47.822;7.564;2023-09-19T13:23:49;23.70;99.90
4647;DHT22;2336;47.822;7.564;2023-09-19T13:26:17;23.80;99.90
4647;DHT22;2336;47.822;7.564;2023-09-19T13:28:44;23.60;99.90
4647;DHT22;2336;47.822;7.564;2023-09-19T13:31:13;23.70;99.90
4647;DHT22;2336;47.822;7.564;2023-09-19T13:33:43;23.80;99.90
4647;DHT22;2336;47.822;7.564;2023-09-19T13:36:10;23.80;99.30
4647;DHT22;2336;47.822;7.564;2023-09-19T13:38:38;23.90;99.60
4647;DHT22;2336;47.822;7.564;2023-09-19T13:41:05;23.90;97.80
4647;DHT22;2336;47.822;7.564;2023-09-19T13:43:33;23.90;98.00
4647;DHT22;2336;47.822;7.564;2023-09-19T13:46:00;23.80;98.40
4647;DHT22;2336;47.822;7.564;2023-09-19T13:48:28;23.90;98.50
4647;DHT22;2336;47.822;7.564;2023-09-19T13:50:55;23.90;99.10
4647;DHT22;2336;47.822;7.564;2023-09-19T13:53:22;24.00;97.70
4647;DHT22;2336;47.822;7.564;2023-09-19T13:55:51;24.00;98.10
4647;DHT22;2336;47.822;7.564;2023-09-19T13:58:18;24.10;98.50
4647;DHT22;2336;47.822;7.564;2023-09-19T14:00:46;24.10;98.60
4647;DHT22;2336;47.822;7.564;2023-09-19T14:03:12;23.90;97.90
4647;DHT22;2336;47.822;7.564;2023-09-19T14:05:39;23.90;98.80
4647;DHT22;2336;47.822;7.564;2023-09-19T14:08:07;23.80;98.10
4647;DHT22;2336;47.822;7.564;2023-09-19T14:10:34;24.00;98.30
4647;DHT22;2336;47.822;7.564;2023-09-19T14:13:01;23.90;97.80
4647;DHT22;2336;47.822;7.564;2023-09-19T14:15:28;23.90;98.00
4647;DHT22;2336;47.822;7.564;2023-09-19T14:17:59;24.00;97.90
4647;DHT22;2336;47.822;7.564;2023-09-19T14:20:27;23.90;97.30
4647;DHT22;2336;47.822;7.564;2023-09-19T14:22:54;23.90;98.30
4647;DHT22;2336;47.822;7.564;2023-09-19T14:25:21;23.70;97.60
4647;DHT22;2336;47.822;7.564;2023-09-19T14:27:48;23.80;98.30
4647;DHT22;2336;47.822;7.564;2023-09-19T14:30:15;23.90;97.30
4647;DHT22;2336;47.822;7.564;2023-09-19T14:32:42;23.80;97.30
4647;DHT22;2336;47.822;7.564;2023-09-19T14:35:11;24.00;97.60
4647;DHT22;2336;47.822;7.564;2023-09-19T14:37:40;24.10;97.80
4647;DHT22;2336;47.822;7.564;2023-09-19T14:40:08;24.20;97.80
4647;DHT22;2336;47.822;7.564;2023-09-19T14:42:38;24.30;97.30
4647;DHT22;2336;47.822;7.564;2023-09-19T14:45:05;24.40;97.30
4647;DHT22;2336;47.822;7.564;2023-09-19T14:47:32;24.30;97.90
4647;DHT22;2336;47.822;7.564;2023-09-19T14:50:00;24.20;97.10
4647;DHT22;2336;47.822;7.564;2023-09-19T14:52:28;24.10;97.70
4647;DHT22;2336;47.822;7.564;2023-09-19T14:54:55;24.10;98.10
4647;DHT22;2336;47.822;7.564;2023-09-19T14:57:22;24.20;97.60
4647;DHT22;2336;47.822;7.564;2023-09-19T14:59:50;24.20;98.20
4647;DHT22;2336;47.822;7.564;2023-09-19T15:02:17;24.20;97.60
4647;DHT22;2336;47.822;7.564;2023-09-19T15:04:44;24.10;98.70
4647;DHT22;2336;47.822;7.564;2023-09-19T15:07:12;24.10;98.90
4647;DHT22;2336;47.822;7.564;2023-09-19T15:09:40;24.00;98.40
4647;DHT22;2336;47.822;7.564;2023-09-19T15:12:07;23.90;97.50
4647;DHT22;2336;47.822;7.564;2023-09-19T15:14:34;23.90;98.20
4647;DHT22;2336;47.822;7.564;2023-09-19T15:17:01;23.90;97.90
4647;DHT22;2336;47.822;7.564;2023-09-19T15:19:30;23.80;99.20
4647;DHT22;2336;47.822;7.564;2023-09-19T15:21:56;24.00;98.80
4647;DHT22;2336;47.822;7.564;2023-09-19T15:24:24;24.10;99.50
4647;DHT22;2336;47.822;7.564;2023-09-19T15:26:53;24.00;98.20
4647;DHT22;2336;47.822;7.564;2023-09-19T15:29:21;23.80;98.80
4647;DHT22;2336;47.822;7.564;2023-09-19T15:31:48;23.60;97.90
4647;DHT22;2336;47.822;7.564;2023-09-19T15:34:15;23.60;98.40
4647;DHT22;2336;47.822;7.564;2023-09-19T15:36:42;23.50;98.50
4647;DHT22;2336;47.822;7.564;2023-09-19T15:39:09;23.50;98.20
4647;DHT22;2336;47.822;7.564;2023-09-19T15:41:38;23.60;99.00
4647;DHT22;2336;47.822;7.564;2023-09-19T15:44:11;23.60;98.80
4647;DHT22;2336;47.822;7.564;2023-09-19T15:46:38;23.70;99.30
4647;DHT22;2336;47.822;7.564;2023-09-19T15:49:04;23.60;98.20
4647;DHT22;2336;47.822;7.564;2023-09-19T15:51:32;23.60;99.10
4647;DHT22;2336;47.822;7.564;2023-09-19T15:54:02;23.40;98.90
4647;DHT22;2336;47.822;7.564;2023-09-19T15:56:33;23.40;99.40
4647;DHT22;2336;47.822;7.564;2023-09-19T15:59:01;23.40;99.20
4647;DHT22;2336;47.822;7.564;2023-09-19T16:01:29;23.50;99.30
4647;DHT22;2336;47.822;7.564;2023-09-19T16:03:55;23.40;99.40
4647;DHT22;2336;47.822;7.564;2023-09-19T16:06:24;23.20;99.30
4647;DHT22;2336;47.822;7.564;2023-09-19T16:08:52;23.20;99.90
4647;DHT22;2336;47.822;7.564;2023-09-19T16:11:20;23.20;99.80
4647;DHT22;2336;47.822;7.564;2023-09-19T16:13:48;23.00;98.80
4647;DHT22;2336;47.822;7.564;2023-09-19T16:16:16;22.90;98.70
4647;DHT22;2336;47.822;7.564;2023-09-19T16:18:47;22.80;98.70
4647;DHT22;2336;47.822;7.564;2023-09-19T16:21:14;22.70;98.90
4647;DHT22;2336;47.822;7.564;2023-09-19T16:23:44;22.70;98.90
4647;DHT22;2336;47.822;7.564;2023-09-19T16:26:12;22.60;99.30
4647;DHT22;2336;47.822;7.564;2023-09-19T16:28:40;22.60;99.20
4647;DHT22;2336;47.822;7.564;2023-09-19T16:31:08;22.50;99.50
4647;DHT22;2336;47.822;7.564;2023-09-19T16:33:36;22.50;99.90